createdAt,value
2022-08-03T00:02:25.352Z,73.40
2022-08-03T00:07:30.249Z,73.90
2022-08-03T00:12:33.778Z,74.20
2022-08-03T00:17:52.414Z,74.20
2022-08-03T00:22:58.728Z,74.50
2022-08-03T00:28:02.667Z,75.30
2022-08-03T00:33:05.926Z,74.90
2022-08-03T00:38:13.318Z,74.90
2022-08-03T00:43:16.734Z,75.20
2022-08-03T00:48:33.210Z,75.60
2022-08-03T00:53:39.286Z,75.90
2022-08-03T00:58:45.148Z,76.10
2022-08-03T01:03:48.543Z,76.60
2022-08-03T01:09:00.326Z,76.70
2022-08-03T01:14:18.904Z,77.20
2022-08-03T01:19:44.864Z,77.40
2022-08-03T01:24:59.960Z,77.80
2022-08-03T01:30:08.972Z,77.90
2022-08-03T01:35:15.872Z,78.10
2022-08-03T01:40:21.997Z,78.30
2022-08-03T01:45:28.278Z,78.60
2022-08-03T01:50:37.654Z,79.40
2022-08-03T01:55:41.354Z,79.30
2022-08-03T02:00:46.647Z,79.80
2022-08-03T02:06:06.126Z,80.40
2022-08-03T02:11:15.700Z,80.80
2022-08-03T02:16:21.247Z,81.50
2022-08-03T02:21:56.374Z,82.00
2022-08-03T02:26:50.489Z,82.50
2022-08-03T02:31:59.568Z,83.20
2022-08-03T02:37:05.764Z,83.80
2022-08-03T02:42:12.799Z,84.30
2022-08-03T02:47:21.541Z,84.60
2022-08-03T02:52:28.241Z,85.00
2022-08-03T02:57:35.311Z,85.40
2022-08-03T03:02:43.933Z,85.90
2022-08-03T03:07:51.735Z,86.20
2022-08-03T03:12:58.487Z,86.90
2022-08-03T03:18:04.044Z,87.30
2022-08-03T03:23:07.860Z,87.50
2022-08-03T03:28:12.409Z,87.60
2022-08-03T03:33:17.168Z,87.70
2022-08-03T03:38:21.673Z,87.90
2022-08-03T03:43:25.934Z,88.10
2022-08-03T03:48:30.834Z,88.20
2022-08-03T03:53:35.974Z,88.30
2022-08-03T03:58:39.301Z,88.60
2022-08-03T04:03:44.259Z,88.70
2022-08-03T04:09:04.925Z,88.60
2022-08-03T04:14:12.487Z,88.40
2022-08-03T04:19:23.328Z,88.40
2022-08-03T04:24:31.879Z,88.40
2022-08-03T04:29:39.999Z,88.20
2022-08-03T04:34:53.300Z,87.90
2022-08-03T04:40:00.384Z,87.30
2022-08-03T04:45:05.808Z,87.00
2022-08-03T04:50:15.036Z,86.80
2022-08-03T04:55:28.942Z,86.80
2022-08-03T05:00:33.981Z,87.00
2022-08-03T05:05:49.846Z,87.30
2022-08-03T05:10:54.648Z,87.40
2022-08-03T05:15:57.839Z,87.30
2022-08-03T05:21:02.833Z,87.20
2022-08-03T05:26:06.203Z,86.90
2022-08-03T05:31:09.543Z,86.40
2022-08-03T05:36:14.742Z,85.80
2022-08-03T05:41:21.431Z,84.20
2022-08-03T05:46:27.510Z,82.70
2022-08-03T05:51:32.458Z,81.10
2022-08-03T05:56:35.753Z,80.00
2022-08-03T06:01:38.924Z,79.30
2022-08-03T06:06:43.526Z,78.30
2022-08-03T06:11:46.825Z,77.30
2022-08-03T06:16:50.001Z,76.60
2022-08-03T06:21:54.570Z,76.00
2022-08-03T06:26:57.829Z,75.40
2022-08-03T06:32:00.982Z,74.50
2022-08-03T06:37:05.937Z,73.80
2022-08-03T06:42:10.496Z,73.50
2022-08-03T06:47:13.865Z,71.70
2022-08-03T06:52:37.728Z,68.80
2022-08-03T06:57:41.749Z,67.00
2022-08-03T07:02:44.906Z,64.50
2022-08-03T07:07:49.640Z,63.60
2022-08-03T07:12:56.599Z,63.50
2022-08-03T07:18:00.581Z,62.50
2022-08-03T07:23:05.213Z,61.50
2022-08-03T07:28:08.662Z,61.00
2022-08-03T07:33:12.297Z,60.10
2022-08-03T07:38:20.814Z,59.60
2022-08-03T07:43:24.848Z,59.30
2022-08-03T07:48:28.420Z,58.20
2022-08-03T07:53:33.487Z,57.60
2022-08-03T07:58:41.204Z,57.40
2022-08-03T08:03:52.706Z,56.40
2022-08-03T08:09:02.291Z,55.80
2022-08-03T08:14:05.942Z,55.60
2022-08-03T08:19:09.378Z,54.80
2022-08-03T08:24:18.275Z,54.70
2022-08-03T08:29:23.857Z,54.10
2022-08-03T08:34:27.181Z,53.30
2022-08-03T08:39:31.843Z,52.60
2022-08-03T08:44:35.395Z,51.60
2022-08-03T08:49:49.493Z,51.00
2022-08-03T08:55:08.507Z,50.80
2022-08-03T09:00:15.429Z,49.70
2022-08-03T09:05:31.492Z,49.20
2022-08-03T09:10:45.366Z,48.50
2022-08-03T09:16:00.753Z,47.60
2022-08-03T09:21:30.516Z,47.40
2022-08-03T09:26:37.051Z,47.00
2022-08-03T09:31:43.534Z,46.40
2022-08-03T09:36:48.607Z,45.60
2022-08-03T09:42:07.467Z,44.90
2022-08-03T09:47:11.411Z,44.90
2022-08-03T09:52:37.929Z,43.80
2022-08-03T09:57:46.296Z,43.20
2022-08-03T10:02:50.896Z,42.60
2022-08-03T10:07:54.610Z,42.10
2022-08-03T10:12:59.467Z,41.40
2022-08-03T10:18:03.438Z,41.90
2022-08-03T10:23:07.470Z,41.70
2022-08-03T10:28:16.504Z,40.90
2022-08-03T10:33:51.983Z,40.40
2022-08-03T10:38:52.505Z,40.00
2022-08-03T10:44:00.775Z,39.50
2022-08-03T10:49:04.838Z,39.60
2022-08-03T10:54:11.819Z,39.20
2022-08-03T10:59:27.500Z,39.10
2022-08-03T11:04:31.366Z,38.70
2022-08-03T11:09:43.544Z,37.80
2022-08-03T11:14:50.167Z,37.60
2022-08-03T11:19:56.486Z,37.90
2022-08-03T11:25:01.775Z,37.70
2022-08-03T11:30:09.335Z,37.30
2022-08-03T11:35:14.077Z,36.80
2022-08-03T11:40:36.024Z,36.40
2022-08-03T11:45:57.258Z,35.80
2022-08-03T11:51:01.072Z,35.30
2022-08-03T11:56:04.747Z,35.00
2022-08-03T12:01:21.322Z,34.20
2022-08-03T12:06:26.124Z,34.30
2022-08-03T12:11:30.647Z,34.10
2022-08-03T12:16:35.219Z,33.50
2022-08-03T12:21:57.292Z,32.30
2022-08-03T12:27:00.746Z,32.00
2022-08-03T12:32:05.726Z,31.40
2022-08-03T12:37:20.276Z,31.00
2022-08-03T12:42:31.823Z,30.50
2022-08-03T12:47:57.855Z,30.00
2022-08-03T12:53:02.540Z,29.70
2022-08-03T12:58:07.564Z,29.10
2022-08-03T13:03:39.344Z,29.20
2022-08-03T13:08:35.631Z,28.80
2022-08-03T13:13:42.273Z,28.90
2022-08-03T13:18:48.056Z,28.90
2022-08-03T13:23:51.614Z,28.40
2022-08-03T13:28:55.118Z,28.70
2022-08-03T13:33:59.973Z,28.80
2022-08-03T13:39:03.315Z,28.80
2022-08-03T13:44:28.251Z,28.30
2022-08-03T13:49:34.942Z,27.90
2022-08-03T13:54:38.452Z,27.70
2022-08-03T13:59:48.105Z,27.20
2022-08-03T14:04:53.023Z,27.10
2022-08-03T14:09:56.968Z,28.10
2022-08-03T14:15:01.700Z,29.80
2022-08-03T14:20:36.208Z,30.90
2022-08-03T14:25:50.086Z,31.10
2022-08-03T14:30:55.916Z,31.00
2022-08-03T14:36:00.780Z,31.20
2022-08-03T14:41:04.111Z,31.20
2022-08-03T14:46:07.449Z,31.30
2022-08-03T14:51:12.025Z,31.20
2022-08-03T14:56:15.252Z,31.20
2022-08-03T15:02:02.271Z,31.30
2022-08-03T15:06:42.910Z,31.40
2022-08-03T15:11:49.249Z,31.50
2022-08-03T15:16:52.677Z,31.70
2022-08-03T15:21:57.224Z,31.90
2022-08-03T15:27:06.471Z,31.90
2022-08-03T15:32:09.851Z,32.00
2022-08-03T15:37:16.559Z,32.00
2022-08-03T15:42:19.823Z,31.90
2022-08-03T15:47:24.218Z,32.00
2022-08-03T15:52:28.880Z,31.90
2022-08-03T15:57:32.078Z,32.00
2022-08-03T16:02:35.659Z,32.00
2022-08-03T16:08:03.041Z,32.00
2022-08-03T16:13:07.264Z,32.20
2022-08-03T16:18:10.352Z,32.50
2022-08-03T16:23:18.557Z,32.70
2022-08-03T16:28:23.526Z,32.80
2022-08-03T16:33:26.771Z,33.10
2022-08-03T16:38:31.586Z,33.30
2022-08-03T16:43:35.724Z,33.30
2022-08-03T16:48:40.285Z,33.40
2022-08-03T16:54:07.404Z,33.20
2022-08-03T16:59:07.988Z,33.10
2022-08-03T17:04:11.860Z,33.10
2022-08-03T17:09:20.621Z,33.20
2022-08-03T17:14:28.248Z,33.30
2022-08-03T17:19:34.985Z,33.60
2022-08-03T17:24:46.297Z,34.00
2022-08-03T17:29:52.920Z,34.00
2022-08-03T17:34:57.077Z,34.10
2022-08-03T17:40:03.782Z,34.60
2022-08-03T17:45:08.738Z,34.70
2022-08-03T17:50:25.327Z,34.80
2022-08-03T17:55:55.778Z,34.80
2022-08-03T18:02:00.651Z,34.90
2022-08-03T18:06:55.795Z,34.90
2022-08-03T18:12:06.458Z,34.70
2022-08-03T18:17:19.999Z,34.90
2022-08-03T18:22:25.261Z,35.10
2022-08-03T18:27:42.766Z,35.40
2022-08-03T18:33:00.893Z,35.50
2022-08-03T18:38:16.638Z,35.70
2022-08-03T18:43:46.477Z,35.80
2022-08-03T18:48:56.267Z,36.20
2022-08-03T18:54:08.202Z,36.50
2022-08-03T18:59:30.194Z,36.80
2022-08-03T19:04:37.267Z,37.00
2022-08-03T19:09:49.181Z,37.30
2022-08-03T19:14:57.405Z,37.30
2022-08-03T19:20:03.601Z,37.30
2022-08-03T19:25:12.019Z,37.70
2022-08-03T19:30:32.338Z,38.20
2022-08-03T19:35:51.124Z,38.60
2022-08-03T19:40:59.574Z,38.40
2022-08-03T19:46:12.404Z,38.80
2022-08-03T19:51:17.885Z,38.70
2022-08-03T19:56:46.089Z,38.90
2022-08-03T20:01:52.452Z,39.30
2022-08-03T20:06:58.869Z,39.40
2022-08-03T20:12:02.200Z,39.40
2022-08-03T20:17:09.295Z,39.80
2022-08-03T20:22:14.367Z,40.00
2022-08-03T20:27:22.104Z,40.30
2022-08-03T20:32:35.735Z,40.60
2022-08-03T20:37:39.012Z,40.90
2022-08-03T20:42:45.650Z,41.40
2022-08-03T20:47:51.825Z,41.70
2022-08-03T20:52:55.950Z,42.00
2022-08-03T20:58:00.786Z,42.30
2022-08-03T21:03:08.971Z,42.50
2022-08-03T21:08:15.232Z,42.50
2022-08-03T21:13:25.004Z,42.60
2022-08-03T21:18:36.833Z,42.90
2022-08-03T21:23:48.742Z,42.90
2022-08-03T21:28:55.702Z,43.10
2022-08-03T21:34:04.122Z,43.20
2022-08-03T21:39:09.402Z,43.30
2022-08-03T21:44:13.195Z,43.50
2022-08-03T21:50:02.669Z,43.90
2022-08-03T21:54:44.107Z,44.30
2022-08-03T21:59:55.044Z,44.50
2022-08-03T22:04:59.924Z,44.30
2022-08-03T22:10:05.126Z,44.40
2022-08-03T22:15:12.030Z,44.50
2022-08-03T22:20:16.602Z,44.90
2022-08-03T22:25:22.198Z,45.50
2022-08-03T22:30:25.670Z,46.00
2022-08-03T22:35:44.367Z,46.40
2022-08-03T22:40:51.232Z,46.50
2022-08-03T22:46:09.427Z,46.50
2022-08-03T22:51:17.431Z,46.40
2022-08-03T22:56:21.003Z,46.40
2022-08-03T23:01:27.114Z,46.50
2022-08-03T23:06:35.706Z,46.50
2022-08-03T23:11:43.059Z,46.60
2022-08-03T23:16:51.298Z,46.70
2022-08-03T23:22:02.607Z,46.80
2022-08-03T23:27:08.487Z,47.00
2022-08-03T23:32:14.064Z,47.30
2022-08-03T23:37:20.221Z,48.10
2022-08-03T23:42:24.888Z,48.00
2022-08-03T23:47:46.968Z,48.50
2022-08-03T23:53:01.507Z,49.00
2022-08-03T23:58:10.879Z,49.30
